Time;durP1;ratioP1;P1;durP2;ratioP2;P2;SDS_P1;SDS_P2;PMS_P1;PMS_P2;Temp;Humidity;BMP_temperature;BMP_pressure;BME280_temperature;BME280_humidity;BME280_pressure;Samples;Min_cycle;Max_cycle;Signal;HPM_P1;HPM_P2
2022/08/04 00:00:30;;;;;;;10.23;5.80;;;;;;;22.48;44.88;100213.19;5046903;28;20496;-57
2022/08/04 00:03:26;;;;;;;9.98;6.85;;;;;;;22.53;44.32;100219.94;5049287;28;20035;-57
2022/08/04 00:05:52;;;;;;;;;;;;;;;22.72;42.98;100216.59;5031728;28;20540;-57
2022/08/04 00:08:39;;;;;;;;;;;;;;;22.78;42.81;100215.78;5031408;28;19969;-58
2022/08/04 00:11:08;;;;;;;8.65;6.50;;;;;;;22.56;44.18;100217.69;5034209;28;19916;-56
2022/08/04 00:13:38;;;;;;;8.30;6.40;;;;;;;22.43;44.14;100212.03;5050511;28;20314;-55
2022/08/04 00:16:08;;;;;;;12.18;7.18;;;;;;;22.49;44.31;100223.06;5050671;28;20453;-55
2022/08/04 00:19:03;;;;;;;11.52;6.70;;;;;;;22.56;43.93;100219.56;5031528;28;20036;-54
2022/08/04 00:21:35;;;;;;;10.98;6.25;;;;;;;22.40;44.36;100218.72;5045713;28;20059;-62
2022/08/04 00:24:00;;;;;;;9.35;6.60;;;;;;;22.36;44.46;100220.13;5048940;28;20134;-55
2022/08/04 00:26:26;;;;;;;13.05;6.43;;;;;;;22.34;44.72;100219.47;5050979;28;20077;-55
2022/08/04 00:28:52;;;;;;;14.15;6.68;;;;;;;22.28;44.88;100225.72;5036583;28;20061;-53
2022/08/04 00:31:18;;;;;;;10.82;6.80;;;;;;;22.22;45.14;100222.72;5035302;28;20033;-63
2022/08/04 00:33:45;;;;;;;12.43;6.82;;;;;;;22.19;45.30;100223.09;5053925;28;20032;-57
2022/08/04 00:36:12;;;;;;;8.32;6.53;;;;;;;22.15;46.16;100219.03;5055128;28;20033;-57
2022/08/04 00:38:42;;;;;;;10.93;7.13;;;;;;;22.19;45.95;100217.66;5054117;28;20037;-58
2022/08/04 00:41:19;;;;;;;11.65;6.95;;;;;;;22.25;45.11;100221.47;5054067;28;20143;-56
2022/08/04 00:44:26;;;;;;;9.32;6.70;;;;;;;22.32;44.88;100227.00;5054681;28;20412;-56
2022/08/04 00:47:11;;;;;;;13.13;7.13;;;;;;;22.20;45.01;100219.34;5054224;28;20108;-54
2022/08/04 00:50:08;;;;;;;11.63;7.53;;;;;;;22.35;44.36;100227.50;5053648;28;20169;-56
2022/08/04 00:52:45;;;;;;;11.27;7.25;;;;;;;22.30;44.85;100229.91;5054259;28;20029;-57
2022/08/04 00:55:49;;;;;;;16.13;7.38;;;;;;;22.33;44.52;100234.16;5053079;28;20040;-58
2022/08/04 00:58:42;;;;;;;14.50;7.82;;;;;;;22.38;44.76;100237.16;5043145;28;20049;-57
2022/08/04 01:01:32;;;;;;;19.38;8.63;;;;;;;22.42;44.52;100234.91;5048364;28;20057;-58
2022/08/04 01:04:15;;;;;;;8.50;7.57;;;;;;;22.49;44.30;100247.63;5033410;28;20095;-55
2022/08/04 01:07:04;;;;;;;15.98;8.40;;;;;;;22.41;44.50;100242.22;5034485;28;20033;-56
2022/08/04 01:09:55;;;;;;;13.75;7.90;;;;;;;22.27;44.90;100241.22;5034252;28;20466;-56
2022/08/04 01:12:42;;;;;;;15.75;8.40;;;;;;;22.33;44.72;100242.34;5034067;28;20041;-59
2022/08/04 01:15:19;;;;;;;10.73;8.00;;;;;;;22.33;44.74;100250.53;5034089;28;20580;-56
2022/08/04 01:18:02;;;;;;;9.98;8.25;;;;;;;22.31;44.79;100244.41;5049922;28;20053;-58
2022/08/04 01:20:33;;;;;;;11.95;7.85;;;;;;;22.08;45.38;100224.44;5054245;28;20037;-54
2022/08/04 01:23:20;;;;;;;11.07;7.30;;;;;;;22.07;45.99;100247.28;5052307;28;20044;-55
2022/08/04 01:26:11;;;;;;;9.23;7.53;;;;;;;22.05;46.06;100243.88;5050181;28;20030;-54
2022/08/04 01:29:06;;;;;;;13.85;7.93;;;;;;;22.04;45.92;100246.81;5033608;28;20071;-58
2022/08/04 01:31:31;;;;;;;14.00;8.18;;;;;;;21.88;46.20;100239.69;5040718;28;20078;-58
2022/08/04 01:34:02;;;;;;;12.45;8.88;;;;;;;21.87;46.05;100252.44;5053572;28;20116;-60
2022/08/04 01:36:32;;;;;;;13.38;8.68;;;;;;;21.84;46.25;100261.00;5048811;28;20053;-53
2022/08/04 01:38:59;;;;;;;11.20;8.15;;;;;;;21.83;46.48;100256.59;5048008;28;20037;-57
2022/08/04 01:41:24;;;;;;;11.25;9.00;;;;;;;21.83;46.17;100234.78;5053403;28;20082;-56
2022/08/04 01:43:53;;;;;;;9.68;8.65;;;;;;;21.88;46.24;100254.13;5052712;28;20107;-57
2022/08/04 01:46:20;;;;;;;11.80;9.07;;;;;;;21.86;46.26;100258.09;5051439;28;20029;-55
2022/08/04 01:48:51;;;;;;;11.45;9.43;;;;;;;21.83;46.07;100248.41;5047178;28;20030;-54
2022/08/04 01:51:21;;;;;;;11.90;9.02;;;;;;;21.81;46.39;100258.66;5048310;28;20404;-57
2022/08/04 01:53:46;;;;;;;11.95;8.48;;;;;;;21.73;46.72;100254.13;5052805;28;20483;-56
2022/08/04 01:56:12;;;;;;;12.50;8.68;;;;;;;21.73;46.58;100256.84;5044465;28;20021;-54
2022/08/04 01:58:39;;;;;;;15.35;9.10;;;;;;;21.74;47.10;100261.28;5041198;28;20433;-55
2022/08/04 02:01:12;;;;;;;12.57;8.85;;;;;;;21.78;46.55;100264.47;5051503;28;20490;-56
2022/08/04 02:03:44;;;;;;;14.45;9.25;;;;;;;21.86;46.20;100258.94;5052691;28;20431;-55
2022/08/04 02:06:31;;;;;;;9.15;8.23;;;;;;;22.08;45.46;100259.03;5052947;28;20446;-56
2022/08/04 02:09:22;;;;;;;14.80;9.10;;;;;;;22.07;45.51;100255.47;5053013;28;20110;-59
2022/08/04 02:12:22;;;;;;;12.27;9.07;;;;;;;22.19;45.10;100253.09;5053073;28;20032;-54
2022/08/04 02:15:24;;;;;;;13.48;8.43;;;;;;;22.06;45.66;100245.59;5050278;28;20123;-62
2022/08/04 02:18:01;;;;;;;10.93;8.38;;;;;;;22.10;45.88;100259.69;5048710;28;20060;-54
2022/08/04 02:20:38;;;;;;;16.00;9.10;;;;;;;22.11;46.12;100266.00;5052771;28;20075;-58
2022/08/04 02:23:09;;;;;;;13.52;8.70;;;;;;;22.10;46.03;100267.84;5052939;28;20025;-58
2022/08/04 02:26:00;;;;;;;13.07;8.88;;;;;;;22.18;45.82;100265.00;5052903;28;20037;-61
2022/08/04 02:28:54;;;;;;;12.73;9.00;;;;;;;22.21;46.06;100266.53;5051920;28;20114;-55
2022/08/04 02:31:31;;;;;;;12.00;8.68;;;;;;;22.20;45.92;100265.69;5052342;28;20371;-57
2022/08/04 02:34:21;;;;;;;11.45;8.07;;;;;;;22.29;46.11;100265.59;5049070;28;20055;-57
2022/08/04 02:36:49;;;;;;;13.30;9.02;;;;;;;22.22;46.04;100265.50;5052472;28;20044;-56
2022/08/04 02:39:18;;;;;;;10.70;7.88;;;;;;;22.29;46.14;100268.31;5051688;28;20037;-56
2022/08/04 02:41:46;;;;;;;10.95;8.77;;;;;;;22.29;45.71;100271.88;5052073;28;20074;-54
2022/08/04 02:44:13;;;;;;;14.30;9.25;;;;;;;22.38;45.72;100272.63;5050669;28;20036;-56
2022/08/04 02:46:41;;;;;;;10.38;8.20;;;;;;;22.36;46.24;100266.50;5043622;28;20079;-58
2022/08/04 02:49:09;;;;;;;15.20;9.80;;;;;;;22.40;46.06;100272.44;5032498;28;20034;-62
2022/08/04 02:51:38;;;;;;;11.65;8.82;;;;;;;22.39;46.50;100279.75;5032498;28;20073;-58
2022/08/04 02:54:05;;;;;;;11.75;8.35;;;;;;;22.39;46.23;100277.03;5032718;28;20045;-53
2022/08/04 02:56:33;;;;;;;13.45;8.68;;;;;;;22.41;46.22;100269.50;5049282;28;20495;-56
2022/08/04 02:59:04;;;;;;;13.90;9.65;;;;;;;22.50;46.03;100279.31;5052084;28;20035;-57
2022/08/04 03:01:30;;;;;;;10.80;9.38;;;;;;;22.49;45.61;100276.75;5051454;28;20033;-57
2022/08/04 03:04:05;;;;;;;10.48;9.38;;;;;;;22.62;45.50;100271.47;5051686;28;20496;-58
2022/08/04 03:06:36;;;;;;;10.57;8.75;;;;;;;22.68;45.80;100280.78;5051404;28;20028;-53
2022/08/04 03:09:20;;;;;;;16.17;9.13;;;;;;;22.85;44.97;100280.53;5051144;28;20044;-58
2022/08/04 03:12:10;;;;;;;12.07;8.98;;;;;;;22.85;45.28;100280.53;5051938;28;20103;-56
2022/08/04 03:14:54;;;;;;;10.82;9.25;;;;;;;23.01;44.66;100282.16;5035131;28;20139;-58
2022/08/04 03:17:41;;;;;;;11.27;8.52;;;;;;;23.03;44.66;100283.66;5044822;28;20048;-56
2022/08/04 03:20:38;;;;;;;11.38;8.75;;;;;;;23.16;44.48;100282.13;5051292;28;20036;-57
2022/08/04 03:23:52;;;;;;;11.55;9.05;;;;;;;23.25;44.45;100289.16;5051561;28;20119;-58
2022/08/04 03:26:43;;;;;;;14.27;8.68;;;;;;;23.32;43.78;100292.78;5049496;28;20037;-57
2022/08/04 03:29:28;;;;;;;9.43;8.52;;;;;;;23.44;43.46;100287.63;5050667;28;20029;-55
2022/08/04 03:32:26;;;;;;;15.93;10.57;;;;;;;23.59;43.31;100292.16;5050087;28;20079;-58
2022/08/04 03:35:04;;;;;;;14.35;10.95;;;;;;;23.70;42.86;100296.25;5051245;28;20032;-59
2022/08/04 03:37:44;;;;;;;12.95;10.60;;;;;;;23.86;42.51;100293.19;5050777;28;20367;-59
2022/08/04 03:40:53;;;;;;;14.48;10.60;;;;;;;24.08;42.42;100287.66;5051553;28;20039;-58
2022/08/04 03:43:56;;;;;;;14.27;10.07;;;;;;;24.34;41.87;100294.31;5049641;28;20052;-58
2022/08/04 03:46:45;;;;;;;13.93;10.63;;;;;;;24.98;40.08;100299.63;5036520;28;20068;-57
2022/08/04 03:49:29;;;;;;;14.00;10.48;;;;;;;25.85;38.72;100305.16;5051514;28;20031;-61
2022/08/04 03:55:10;;;;;;;11.43;10.23;;;;;;;28.36;33.83;100293.19;5050707;28;20105;-57
2022/08/04 03:57:46;;;;;;;14.43;10.52;;;;;;;29.41;31.37;100288.56;5034118;28;20575;-57
2022/08/04 04:00:16;;;;;;;15.20;9.90;;;;;;;30.38;29.73;100297.38;5029703;28;20377;-58
2022/08/04 04:03:01;;;;;;;14.70;10.15;;;;;;;31.47;28.18;100304.97;5047097;28;20040;-56
2022/08/04 04:05:38;;;;;;;14.48;9.98;;;;;;;32.59;26.56;100298.50;5050753;28;20078;-57
2022/08/04 04:08:28;;;;;;;13.40;9.55;;;;;;;33.53;25.52;100299.44;5049778;28;20040;-53
2022/08/04 04:11:17;;;;;;;12.90;9.15;;;;;;;34.54;23.73;100298.66;5041754;28;20073;-57
2022/08/04 04:13:51;;;;;;;14.98;8.98;;;;;;;35.41;22.36;100295.16;5049161;28;20068;-55
2022/08/04 04:16:54;;;;;;;12.20;8.95;;;;;;;36.14;21.04;100303.41;5051006;28;20025;-55
2022/08/04 04:19:50;;;;;;;8.80;7.80;;;;;;;36.86;20.48;100307.81;5049511;28;20039;-59
2022/08/04 04:22:18;;;;;;;;;;;;;;;38.19;19.37;100313.34;5038359;28;20394;-58
2022/08/04 04:25:01;;;;;;;9.07;7.10;;;;;;;38.19;18.32;100316.16;5030933;28;19966;-57
2022/08/04 04:27:50;;;;;;;9.02;6.88;;;;;;;38.69;18.82;100323.34;5030989;28;20077;-57
2022/08/04 04:30:46;;;;;;;9.27;7.03;;;;;;;38.67;18.81;100320.03;5030660;28;20409;-58
2022/08/04 04:33:11;;;;;;;9.48;6.82;;;;;;;38.72;17.81;100310.72;5031034;28;20049;-62
2022/08/04 04:35:50;;;;;;;14.25;7.90;;;;;;;39.47;17.66;100316.56;5031876;28;20389;-58
2022/08/04 04:38:47;;;;;;;12.90;7.90;;;;;;;40.27;16.68;100319.28;5049246;28;20366;-55
2022/08/04 04:41:28;;;;;;;11.77;7.70;;;;;;;40.08;16.99;100321.34;5033835;28;20046;-58
2022/08/04 04:44:18;;;;;;;14.10;8.10;;;;;;;39.99;16.33;100324.03;5030695;28;20091;-58
2022/08/04 04:47:07;;;;;;;10.30;7.35;;;;;;;40.91;16.69;100320.41;5038864;28;20525;-60
2022/08/04 04:49:50;;;;;;;11.57;7.90;;;;;;;41.34;15.18;100313.47;5049648;28;20119;-53
2022/08/04 04:52:43;;;;;;;10.13;7.70;;;;;;;42.25;14.54;100324.53;5050181;28;20138;-56
2022/08/04 04:55:13;;;;;;;13.13;7.90;;;;;;;42.55;14.16;100315.53;5049135;28;20090;-55
2022/08/04 04:57:40;;;;;;;11.13;6.88;;;;;;;42.75;13.57;100330.94;5050969;28;20040;-55
2022/08/04 05:00:08;;;;;;;11.38;6.93;;;;;;;43.23;13.59;100328.28;5038127;28;20056;-53
2022/08/04 05:03:04;;;;;;;11.60;7.55;;;;;;;43.45;13.32;100321.66;5045467;28;20040;-54
2022/08/04 05:05:29;;;;;;;;;;;;;;;44.58;13.90;100330.78;5049428;28;20031;-59
2022/08/04 05:08:29;;;;;;;7.63;6.63;;;;;;;44.16;13.11;100325.91;5030374;28;19917;-57
2022/08/04 05:11:24;;;;;;;7.45;6.28;;;;;;;44.47;12.93;100328.69;5028615;28;20037;-58
2022/08/04 05:13:55;;;;;;;9.40;6.50;;;;;;;44.69;11.95;100325.56;5030335;28;20037;-56
2022/08/04 05:16:46;;;;;;;8.68;6.20;;;;;;;45.76;12.28;100331.06;5035241;28;20037;-57
2022/08/04 05:19:32;;;;;;;11.18;5.78;;;;;;;45.90;11.76;100330.72;5049504;28;20428;-56
2022/08/04 05:22:28;;;;;;;5.82;5.32;;;;;;;46.28;11.48;100335.19;5053967;28;20040;-56
2022/08/04 05:25:27;;;;;;;9.63;5.50;;;;;;;46.81;11.00;100337.25;5053174;28;20044;-59
2022/08/04 05:28:36;;;;;;;7.13;5.10;;;;;;;47.77;10.10;100337.53;5053487;28;20048;-56
2022/08/04 05:31:09;;;;;;;5.25;4.38;;;;;;;47.67;9.85;100327.56;5051643;28;20052;-56
2022/08/04 05:34:09;;;;;;;5.53;4.70;;;;;;;48.37;9.24;100328.03;5043997;28;20068;-57
2022/08/04 05:36:40;;;;;;;4.57;4.18;;;;;;;49.15;8.84;100323.63;5032682;28;20087;-56
2022/08/04 05:39:12;;;;;;;7.80;4.25;;;;;;;49.81;8.24;100326.44;5046274;28;20052;-53
2022/08/04 05:41:39;;;;;;;3.88;3.55;;;;;;;48.85;8.29;100312.88;5053214;28;20080;-57
2022/08/04 05:44:07;;;;;;;4.70;3.55;;;;;;;48.65;8.72;100329.06;5053572;28;20033;-53
2022/08/04 05:46:34;;;;;;;6.40;3.35;;;;;;;49.17;8.50;100326.09;5045435;28;20029;-53
2022/08/04 05:49:00;;;;;;;3.47;3.00;;;;;;;49.28;7.71;100321.44;5032827;28;20029;-53
2022/08/04 05:51:29;;;;;;;3.58;3.28;;;;;;;49.51;8.05;100321.47;5033334;28;20090;-55
2022/08/04 05:53:56;;;;;;;6.00;3.22;;;;;;;50.30;7.54;100323.19;5033494;28;20033;-53
2022/08/04 05:56:23;;;;;;;3.90;3.60;;;;;;;50.86;7.15;100295.81;5032937;28;20107;-52
2022/08/04 05:58:51;;;;;;;3.72;3.30;;;;;;;51.56;6.55;100323.88;5048246;28;20504;-53
2022/08/04 06:01:19;;;;;;;7.72;3.80;;;;;;;50.89;6.93;100329.28;5048867;28;20029;-57
2022/08/04 06:03:47;;;;;;;4.22;3.28;;;;;;;50.24;7.22;100323.50;5052992;28;20119;-56
2022/08/04 06:06:14;;;;;;;3.92;3.53;;;;;;;50.33;7.38;100328.91;5053619;28;20094;-55
2022/08/04 06:08:39;;;;;;;3.35;2.90;;;;;;;50.35;6.76;100322.84;5051942;28;20504;-58
2022/08/04 06:11:08;;;;;;;4.65;3.22;;;;;;;49.33;7.47;100303.25;5052996;28;20046;-58
2022/08/04 06:13:42;;;;;;;4.82;2.97;;;;;;;49.55;7.38;100328.06;5053193;28;20082;-58
2022/08/04 06:16:09;;;;;;;3.67;3.00;;;;;;;49.93;7.30;100313.25;5052301;28;20024;-58
2022/08/04 06:18:38;;;;;;;3.38;2.90;;;;;;;50.86;6.98;100327.16;5034163;28;20033;-57
2022/08/04 06:21:07;;;;;;;4.30;2.90;;;;;;;51.01;6.64;100313.97;5033121;28;20432;-58
2022/08/04 06:23:37;;;;;;;3.47;2.80;;;;;;;51.09;6.41;100326.22;5033107;28;20057;-56
2022/08/04 06:26:05;;;;;;;3.63;2.28;;;;;;;50.09;6.52;100322.44;5033496;28;20108;-58
2022/08/04 06:28:32;;;;;;;2.90;2.70;;;;;;;50.57;6.60;100323.13;5032624;28;20030;-59
2022/08/04 06:31:02;;;;;;;5.53;3.05;;;;;;;51.38;6.29;100309.47;5034631;28;20121;-58
2022/08/04 06:33:35;;;;;;;3.40;2.83;;;;;;;52.38;5.79;100325.75;5052672;28;20029;-58
2022/08/04 06:36:03;;;;;;;5.05;2.90;;;;;;;53.17;5.01;100320.75;5051759;28;20420;-59
2022/08/04 06:38:30;;;;;;;5.30;2.80;;;;;;;53.41;4.94;100315.50;5050939;28;20119;-59
2022/08/04 06:40:58;;;;;;;3.00;2.80;;;;;;;53.50;4.84;100313.88;5052184;28;20033;-58
2022/08/04 06:43:25;;;;;;;3.30;3.00;;;;;;;53.39;4.68;100324.50;5035998;28;20036;-59
2022/08/04 06:45:51;;;;;;;3.13;2.83;;;;;;;52.60;4.88;100320.16;5046941;28;20035;-61
2022/08/04 06:48:18;;;;;;;4.63;2.70;;;;;;;53.16;4.49;100319.94;5052371;28;20028;-60
2022/08/04 06:50:48;;;;;;;5.00;3.17;;;;;;;53.72;4.49;100324.53;5052415;28;20036;-59
2022/08/04 06:53:14;;;;;;;6.35;3.20;;;;;;;53.89;4.16;100320.00;5033388;28;20036;-60
2022/08/04 06:55:42;;;;;;;4.15;3.25;;;;;;;53.99;4.72;100321.22;5038842;28;20041;-60
2022/08/04 06:58:09;;;;;;;3.83;3.40;;;;;;;54.65;4.49;100334.19;5050282;28;20159;-60
2022/08/04 07:00:37;;;;;;;4.20;3.30;;;;;;;55.30;4.34;100330.16;5051294;28;20393;-60
2022/08/04 07:03:04;;;;;;;4.95;4.55;;;;;;;56.18;3.41;100334.72;5051678;28;20029;-58
2022/08/04 07:05:30;;;;;;;7.47;3.67;;;;;;;55.69;3.97;100326.16;5051068;28;20033;-63
2022/08/04 07:07:56;;;;;;;4.95;3.83;;;;;;;55.02;3.93;100329.91;5051489;28;20049;-59
2022/08/04 07:10:23;;;;;;;4.07;3.78;;;;;;;55.47;3.91;100320.63;5051496;28;20044;-59
2022/08/04 07:12:50;;;;;;;3.90;3.60;;;;;;;55.68;3.58;100313.06;5051716;28;20036;-61
2022/08/04 07:15:17;;;;;;;4.78;4.13;;;;;;;56.07;3.79;100317.63;5047880;28;20044;-61
2022/08/04 07:17:43;;;;;;;4.55;4.25;;;;;;;56.54;3.26;100330.63;5047260;28;20068;-61
2022/08/04 07:20:09;;;;;;;4.05;3.78;;;;;;;56.28;3.74;100310.00;5051582;28;20033;-61
2022/08/04 07:22:35;;;;;;;4.97;4.57;;;;;;;56.01;3.57;100312.75;5051493;28;20082;-61
2022/08/04 07:25:01;;;;;;;5.75;4.60;;;;;;;56.31;3.62;100309.16;5046114;28;20021;-60
2022/08/04 07:27:29;;;;;;;5.03;4.57;;;;;;;56.59;3.14;100307.16;5044848;28;20057;-60
2022/08/04 07:29:54;;;;;;;4.95;4.55;;;;;;;56.86;2.86;100319.97;5047457;28;20440;-60
2022/08/04 07:32:21;;;;;;;4.82;4.55;;;;;;;56.36;2.76;100314.44;5051189;28;20037;-61
2022/08/04 07:34:48;;;;;;;5.22;4.75;;;;;;;56.28;3.49;100306.28;5051101;28;20178;-60
2022/08/04 07:37:15;;;;;;;5.28;4.82;;;;;;;56.07;3.58;100299.56;5051497;28;20052;-60
2022/08/04 07:39:40;;;;;;;5.15;4.82;;;;;;;56.67;3.59;100301.31;5051391;28;20366;-60
2022/08/04 07:42:06;;;;;;;5.25;4.82;;;;;;;57.14;2.86;100289.16;5046359;28;20090;-59
2022/08/04 07:44:33;;;;;;;7.70;5.05;;;;;;;57.53;3.17;100304.16;5050790;28;20456;-59
2022/08/04 07:47:04;;;;;;;5.45;4.95;;;;;;;57.28;2.89;100309.09;5050437;28;20443;-61
2022/08/04 07:49:30;;;;;;;5.25;4.85;;;;;;;56.22;3.23;100301.03;5051240;28;20513;-61
2022/08/04 07:51:55;;;;;;;5.45;4.95;;;;;;;56.35;3.23;100297.63;5050760;28;20155;-61
2022/08/04 07:54:21;;;;;;;5.32;5.03;;;;;;;57.55;2.67;100318.91;5046900;28;20759;-60
2022/08/04 07:56:48;;;;;;;5.65;5.13;;;;;;;56.03;3.25;100311.09;5049886;28;20103;-61
2022/08/04 07:59:20;;;;;;;22.35;5.05;;;;;;;55.34;3.49;100310.84;5050438;28;20029;-58
2022/08/04 08:01:46;;;;;;;4.25;4.05;;;;;;;54.42;3.65;100298.25;5050448;28;20086;-60
2022/08/04 08:04:13;;;;;;;4.65;4.20;;;;;;;53.08;4.60;100284.81;5049015;28;20032;-60
2022/08/04 08:06:40;;;;;;;5.22;4.55;;;;;;;52.06;4.94;100292.09;5049831;28;20029;-60
2022/08/04 08:09:17;;;;;;;3.92;3.33;;;;;;;51.07;5.13;100277.34;5045932;28;20481;-60
2022/08/04 08:11:47;;;;;;;3.50;3.13;;;;;;;49.29;6.40;100311.69;5030873;28;20038;-59
2022/08/04 08:14:14;;;;;;;5.20;2.95;;;;;;;47.18;7.70;100288.13;5030610;28;20029;-62
2022/08/04 08:16:40;;;;;;;5.82;2.80;;;;;;;46.37;8.01;100287.78;5038677;28;20025;-58
2022/08/04 08:19:06;;;;;;;4.43;2.60;;;;;;;45.80;8.62;100283.94;5047477;28;20039;-59
2022/08/04 08:21:34;;;;;;;3.97;2.97;;;;;;;44.95;9.32;100292.63;5050635;28;20029;-61
2022/08/04 08:23:59;;;;;;;4.03;2.72;;;;;;;43.15;10.25;100282.91;5047853;28;20036;-59
2022/08/04 08:26:26;;;;;;;5.20;2.95;;;;;;;41.93;11.38;100291.97;5030905;28;20052;-64
2022/08/04 08:28:51;;;;;;;4.25;3.03;;;;;;;40.50;12.75;100279.25;5039430;28;20101;-59
2022/08/04 08:31:17;;;;;;;3.20;3.00;;;;;;;39.50;13.45;100287.94;5045150;28;20179;-60
2022/08/04 08:33:43;;;;;;;5.60;3.17;;;;;;;38.41;14.17;100286.78;5049640;28;20112;-62
2022/08/04 08:36:15;;;;;;;2.88;2.67;;;;;;;37.72;14.59;100303.78;5047755;28;20029;-61
2022/08/04 08:38:57;;;;;;;3.25;2.80;;;;;;;37.37;14.95;100294.59;5049287;28;20486;-59
2022/08/04 08:41:45;;;;;;;4.15;3.00;;;;;;;36.99;15.30;100287.63;5050306;28;20033;-60
2022/08/04 08:44:26;;;;;;;3.53;3.22;;;;;;;36.33;16.10;100303.59;5047550;28;20029;-59
2022/08/04 08:46:57;;;;;;;6.15;4.22;;;;;;;35.47;17.70;100293.22;5050287;28;20032;-60
2022/08/04 08:49:42;;;;;;;3.63;3.33;;;;;;;35.10;18.00;100295.16;5047900;28;20110;-60
2022/08/04 08:52:33;;;;;;;4.15;3.30;;;;;;;35.01;17.77;100296.81;5035620;28;20037;-59
2022/08/04 08:55:20;;;;;;;3.33;3.03;;;;;;;34.73;17.71;100302.59;5033503;28;20489;-59
2022/08/04 08:58:10;;;;;;;5.30;3.50;;;;;;;34.32;19.07;100285.75;5047711;28;20105;-63
2022/08/04 09:01:00;;;;;;;4.00;3.28;;;;;;;34.17;18.49;100298.47;5053751;28;20487;-61
2022/08/04 09:03:58;;;;;;;5.55;3.67;;;;;;;33.75;19.23;100291.81;5049519;28;20029;-58
2022/08/04 09:06:42;;;;;;;3.85;3.47;;;;;;;33.07;20.20;100282.13;5034214;28;20029;-60
2022/08/04 09:09:29;;;;;;;3.80;3.33;;;;;;;33.19;19.76;100306.94;5033518;28;20399;-59
2022/08/04 09:12:12;;;;;;;3.78;3.42;;;;;;;32.65;20.17;100288.34;5039238;28;20033;-59
2022/08/04 09:14:47;;;;;;;3.38;3.17;;;;;;;32.48;20.98;100294.78;5035430;28;20397;-60
2022/08/04 09:17:25;;;;;;;3.78;3.47;;;;;;;32.74;20.38;100300.63;5045899;28;20063;-60
2022/08/04 09:19:57;;;;;;;5.10;3.33;;;;;;;33.06;20.66;100282.38;5046539;28;20366;-59
2022/08/04 09:22:32;;;;;;;5.55;3.75;;;;;;;33.46;19.94;100294.13;5033922;28;20057;-60
2022/08/04 09:25:12;;;;;;;4.00;3.58;;;;;;;33.33;20.20;100299.00;5032719;28;20072;-63
2022/08/04 09:27:54;;;;;;;4.30;3.90;;;;;;;33.28;20.20;100293.41;5048534;28;20033;-60
2022/08/04 09:30:38;;;;;;;6.10;3.70;;;;;;;33.29;20.48;100285.91;5053000;28;20037;-58
2022/08/04 09:33:26;;;;;;;6.75;3.88;;;;;;;33.36;20.39;100287.34;5033507;28;20132;-60
2022/08/04 09:36:10;;;;;;;6.95;5.20;;;;;;;33.00;21.35;100284.25;5050556;28;20087;-60
2022/08/04 09:39:02;;;;;;;6.22;4.30;;;;;;;32.76;21.17;100279.00;5053456;28;20048;-60
2022/08/04 09:41:36;;;;;;;4.93;4.35;;;;;;;32.21;22.59;100287.22;5051846;28;20049;-63
2022/08/04 09:44:33;;;;;;;5.72;4.57;;;;;;;32.12;22.06;100283.25;5053829;28;20424;-60
2022/08/04 09:47:10;;;;;;;5.97;4.50;;;;;;;32.16;22.64;100281.63;5041954;28;20034;-61
2022/08/04 09:49:42;;;;;;;6.85;5.03;;;;;;;32.32;22.73;100287.38;5032850;28;20431;-61
2022/08/04 09:52:26;;;;;;;5.15;4.75;;;;;;;32.58;22.39;100282.16;5033611;28;20025;-60
2022/08/04 09:55:07;;;;;;;5.85;5.35;;;;;;;32.79;21.93;100278.47;5033469;28;20094;-59
2022/08/04 09:57:50;;;;;;;7.55;4.80;;;;;;;32.52;22.65;100283.19;5033050;28;20478;-59
2022/08/04 10:00:19;;;;;;;5.57;4.68;;;;;;;32.49;22.61;100273.47;5032777;28;20045;-60
2022/08/04 10:02:54;;;;;;;6.90;4.90;;;;;;;32.79;22.21;100288.75;5032598;28;21065;-58
2022/08/04 10:05:46;;;;;;;5.88;4.63;;;;;;;32.93;21.81;100272.56;5032253;28;20026;-58
2022/08/04 10:08:33;;;;;;;5.40;4.60;;;;;;;32.95;21.68;100275.91;5031851;28;20094;-62
2022/08/04 10:11:08;;;;;;;6.65;5.18;;;;;;;32.85;22.39;100278.56;5032950;28;20124;-62
2022/08/04 10:13:55;;;;;;;9.32;4.95;;;;;;;32.90;22.45;100275.84;5033260;28;20033;-59
2022/08/04 10:16:39;;;;;;;7.03;4.88;;;;;;;33.00;22.36;100272.34;5032848;28;20163;-59
2022/08/04 10:19:27;;;;;;;5.65;4.78;;;;;;;33.24;22.53;100270.03;5032739;28;20037;-60
2022/08/04 10:22:08;;;;;;;6.05;5.50;;;;;;;33.41;22.22;100267.16;5033272;28;20025;-60
2022/08/04 10:25:07;;;;;;;6.22;5.63;;;;;;;33.36;22.29;100269.84;5032796;28;20112;-60
2022/08/04 10:27:47;;;;;;;5.50;5.00;;;;;;;33.37;22.28;100268.75;5032259;28;20397;-59
2022/08/04 10:30:17;;;;;;;6.65;5.38;;;;;;;33.41;22.59;100269.06;5032921;28;20025;-60
2022/08/04 10:32:57;;;;;;;7.18;5.55;;;;;;;33.56;22.44;100263.66;5032430;28;20117;-60
2022/08/04 10:35:25;;;;;;;6.15;5.18;;;;;;;33.54;22.61;100276.97;5032505;28;20075;-59
2022/08/04 10:38:14;;;;;;;7.20;5.65;;;;;;;33.46;22.67;100280.25;5035149;28;20095;-61
2022/08/04 10:40:45;;;;;;;5.88;5.28;;;;;;;32.99;23.42;100271.50;5046152;28;20047;-56
2022/08/04 10:43:29;;;;;;;10.10;6.38;;;;;;;32.90;23.13;100284.19;5051552;28;20116;-59
2022/08/04 10:46:00;;;;;;;6.55;5.70;;;;;;;32.69;23.23;100275.63;5050716;28;20057;-53
2022/08/04 10:48:31;;;;;;;6.47;5.53;;;;;;;32.50;23.79;100266.81;5035126;28;20465;-56
2022/08/04 10:51:19;;;;;;;6.78;5.93;;;;;;;32.72;22.87;100264.00;5032344;28;20461;-60
2022/08/04 10:53:50;;;;;;;7.10;5.88;;;;;;;32.72;23.21;100277.88;5050647;28;20045;-58
2022/08/04 10:56:42;;;;;;;7.00;6.30;;;;;;;32.75;22.89;100277.34;5028588;28;20060;-57
2022/08/04 10:59:17;;;;;;;8.60;6.10;;;;;;;32.70;23.38;100280.06;5031924;28;20038;-58
2022/08/04 11:01:49;;;;;;;7.80;5.95;;;;;;;32.67;23.73;100274.19;5046390;28;20027;-54
2022/08/04 11:04:46;;;;;;;7.63;5.93;;;;;;;32.77;23.54;100274.31;5030395;28;20045;-53
2022/08/04 11:07:13;;;;;;;7.72;6.38;;;;;;;32.52;23.76;100275.72;5047343;28;20073;-60
2022/08/04 11:09:41;;;;;;;7.60;6.32;;;;;;;32.30;24.16;100271.00;5040571;28;20057;-55
2022/08/04 11:12:18;;;;;;;6.50;5.90;;;;;;;32.03;24.48;100268.16;5051003;28;20064;-56
2022/08/04 11:14:52;;;;;;;9.60;6.35;;;;;;;31.77;25.07;100278.88;5051601;28;20120;-56
2022/08/04 11:17:23;;;;;;;7.38;6.32;;;;;;;31.31;25.78;100259.63;5047762;28;20033;-57
2022/08/04 11:19:51;;;;;;;9.27;6.65;;;;;;;31.25;25.44;100275.28;5051328;28;20045;-59
2022/08/04 11:22:24;;;;;;;9.63;6.72;;;;;;;31.12;25.99;100257.06;5051433;28;20033;-56
2022/08/04 11:25:19;;;;;;;7.63;5.97;;;;;;;31.44;25.05;100275.03;5050706;28;20075;-57
2022/08/04 11:28:01;;;;;;;9.57;6.45;;;;;;;31.62;25.90;100279.47;5040761;28;20071;-59
2022/08/04 11:30:37;;;;;;;6.70;6.07;;;;;;;31.80;25.15;100289.44;5045116;28;20033;-60
2022/08/04 11:33:08;;;;;;;7.40;6.13;;;;;;;31.69;25.62;100282.06;5031374;28;20029;-67
2022/08/04 11:35:43;;;;;;;7.35;6.65;;;;;;;31.52;25.64;100274.59;5030993;28;20036;-63
2022/08/04 11:38:17;;;;;;;6.72;5.97;;;;;;;31.32;26.49;100272.34;5031776;28;20120;-60
2022/08/04 11:40:46;;;;;;;7.30;6.63;;;;;;;31.27;26.14;100280.56;5031125;28;20085;-60
2022/08/04 11:43:18;;;;;;;7.60;6.60;;;;;;;31.28;26.23;100271.19;5038139;28;20049;-60
2022/08/04 11:45:54;;;;;;;7.82;7.03;;;;;;;31.22;25.83;100253.66;5050986;28;20041;-59
2022/08/04 11:48:39;;;;;;;8.18;6.35;;;;;;;31.25;25.79;100269.75;5049488;28;20061;-58
2022/08/04 11:51:08;;;;;;;7.25;6.55;;;;;;;31.11;26.04;100262.84;5031173;28;20370;-60
2022/08/04 11:53:37;;;;;;;8.52;6.88;;;;;;;31.12;26.29;100259.00;5034205;28;20044;-60
2022/08/04 11:56:07;;;;;;;7.43;6.72;;;;;;;31.14;26.56;100260.41;5030814;28;20044;-61
2022/08/04 11:58:32;;;;;;;8.95;6.75;;;;;;;31.20;26.16;100250.31;5031443;28;20026;-62
2022/08/04 12:01:11;;;;;;;8.65;6.25;;;;;;;31.34;25.83;100259.94;5033296;28;20026;-57
2022/08/04 12:04:18;;;;;;;8.95;6.40;;;;;;;31.72;25.68;100259.41;5049899;28;20370;-56
2022/08/04 12:06:51;;;;;;;7.75;6.47;;;;;;;31.83;25.91;100250.19;5049135;28;20506;-59
2022/08/04 12:09:31;;;;;;;7.70;6.68;;;;;;;32.16;24.77;100248.41;5036570;28;20203;-59
2022/08/04 12:12:14;;;;;;;9.10;6.43;;;;;;;31.90;25.22;100225.06;5030629;28;20045;-54